sensor_id;sensor_type;location;lat;lon;timestamp;temperature;humidity
728;DHT22;347;48.780;9.158;2023-05-10T00:00:27;15.80;57.40
728;DHT22;347;48.780;9.158;2023-05-10T00:02:52;15.70;58.20
728;DHT22;347;48.780;9.158;2023-05-10T00:05:18;15.50;56.60
728;DHT22;347;48.780;9.158;2023-05-10T00:07:44;15.40;56.70
728;DHT22;347;48.780;9.158;2023-05-10T00:10:10;15.30;57.30
728;DHT22;347;48.780;9.158;2023-05-10T00:12:36;15.30;57.30
728;DHT22;347;48.780;9.158;2023-05-10T00:15:02;15.30;58.00
728;DHT22;347;48.780;9.158;2023-05-10T00:17:28;15.20;57.10
728;DHT22;347;48.780;9.158;2023-05-10T00:19:53;15.30;57.30
728;DHT22;347;48.780;9.158;2023-05-10T00:22:19;15.30;56.70
728;DHT22;347;48.780;9.158;2023-05-10T00:24:45;15.20;56.70
728;DHT22;347;48.780;9.158;2023-05-10T00:27:10;15.20;56.30
728;DHT22;347;48.780;9.158;2023-05-10T00:29:36;15.20;57.40
728;DHT22;347;48.780;9.158;2023-05-10T00:32:01;15.20;56.00
728;DHT22;347;48.780;9.158;2023-05-10T00:34:27;15.20;55.10
728;DHT22;347;48.780;9.158;2023-05-10T00:36:53;15.10;54.70
728;DHT22;347;48.780;9.158;2023-05-10T00:39:18;15.20;55.50
728;DHT22;347;48.780;9.158;2023-05-10T00:41:44;15.20;54.50
728;DHT22;347;48.780;9.158;2023-05-10T00:44:09;15.30;53.90
728;DHT22;347;48.780;9.158;2023-05-10T00:46:35;15.30;53.90
728;DHT22;347;48.780;9.158;2023-05-10T00:49:01;15.40;53.00
728;DHT22;347;48.780;9.158;2023-05-10T00:51:27;15.20;53.40
728;DHT22;347;48.780;9.158;2023-05-10T00:53:53;15.10;54.00
728;DHT22;347;48.780;9.158;2023-05-10T00:56:19;15.20;53.90
728;DHT22;347;48.780;9.158;2023-05-10T00:58:48;15.20;53.00
728;DHT22;347;48.780;9.158;2023-05-10T01:01:13;15.20;52.40
728;DHT22;347;48.780;9.158;2023-05-10T01:03:39;15.10;52.30
728;DHT22;347;48.780;9.158;2023-05-10T01:06:05;15.10;53.10
728;DHT22;347;48.780;9.158;2023-05-10T01:08:31;15.10;52.60
728;DHT22;347;48.780;9.158;2023-05-10T01:10:57;15.10;53.40
728;DHT22;347;48.780;9.158;2023-05-10T01:13:34;15.10;52.70
728;DHT22;347;48.780;9.158;2023-05-10T01:16:01;15.20;51.50
728;DHT22;347;48.780;9.158;2023-05-10T01:18:29;15.20;52.00
728;DHT22;347;48.780;9.158;2023-05-10T01:21:19;15.30;51.20
728;DHT22;347;48.780;9.158;2023-05-10T01:24:03;15.20;50.80
728;DHT22;347;48.780;9.158;2023-05-10T01:27:00;15.10;51.80
728;DHT22;347;48.780;9.158;2023-05-10T01:30:00;15.20;51.80
728;DHT22;347;48.780;9.158;2023-05-10T01:35:19;15.00;51.10
728;DHT22;347;48.780;9.158;2023-05-10T01:37:52;14.80;52.00
728;DHT22;347;48.780;9.158;2023-05-10T01:40:32;14.70;52.50
728;DHT22;347;48.780;9.158;2023-05-10T01:43:03;14.70;53.30
728;DHT22;347;48.780;9.158;2023-05-10T01:45:37;14.70;53.20
728;DHT22;347;48.780;9.158;2023-05-10T01:48:11;14.90;53.30
728;DHT22;347;48.780;9.158;2023-05-10T01:50:41;15.00;52.80
728;DHT22;347;48.780;9.158;2023-05-10T01:53:09;15.00;51.60
728;DHT22;347;48.780;9.158;2023-05-10T01:55:47;15.10;52.20
728;DHT22;347;48.780;9.158;2023-05-10T01:58:17;15.00;51.40
728;DHT22;347;48.780;9.158;2023-05-10T02:00:45;15.00;50.60
728;DHT22;347;48.780;9.158;2023-05-10T02:03:12;15.10;52.10
728;DHT22;347;48.780;9.158;2023-05-10T02:05:41;15.10;50.60
728;DHT22;347;48.780;9.158;2023-05-10T02:08:08;15.10;50.90
728;DHT22;347;48.780;9.158;2023-05-10T02:10:35;15.00;50.10
728;DHT22;347;48.780;9.158;2023-05-10T02:13:02;14.90;50.70
728;DHT22;347;48.780;9.158;2023-05-10T02:15:28;14.90;51.30
728;DHT22;347;48.780;9.158;2023-05-10T02:17:55;15.10;52.20
728;DHT22;347;48.780;9.158;2023-05-10T02:20:22;15.10;52.20
728;DHT22;347;48.780;9.158;2023-05-10T02:22:50;15.30;52.00
728;DHT22;347;48.780;9.158;2023-05-10T02:25:18;15.30;50.20
728;DHT22;347;48.780;9.158;2023-05-10T02:27:44;15.20;50.20
728;DHT22;347;48.780;9.158;2023-05-10T02:30:11;15.10;49.40
728;DHT22;347;48.780;9.158;2023-05-10T02:32:38;15.00;50.50
728;DHT22;347;48.780;9.158;2023-05-10T02:35:05;15.00;51.00
728;DHT22;347;48.780;9.158;2023-05-10T02:37:31;15.00;50.80
728;DHT22;347;48.780;9.158;2023-05-10T02:39:58;14.80;51.50
728;DHT22;347;48.780;9.158;2023-05-10T02:42:27;14.80;51.70
728;DHT22;347;48.780;9.158;2023-05-10T02:44:56;14.70;51.80
728;DHT22;347;48.780;9.158;2023-05-10T02:47:24;14.70;51.70
728;DHT22;347;48.780;9.158;2023-05-10T02:49:50;14.80;51.80
728;DHT22;347;48.780;9.158;2023-05-10T02:52:21;14.70;52.20
728;DHT22;347;48.780;9.158;2023-05-10T02:54:50;14.60;52.10
728;DHT22;347;48.780;9.158;2023-05-10T02:57:24;14.50;52.80
728;DHT22;347;48.780;9.158;2023-05-10T02:59:50;14.40;52.60
728;DHT22;347;48.780;9.158;2023-05-10T03:02:16;14.30;53.10
728;DHT22;347;48.780;9.158;2023-05-10T03:04:42;14.40;53.50
728;DHT22;347;48.780;9.158;2023-05-10T03:07:08;14.40;54.20
728;DHT22;347;48.780;9.158;2023-05-10T03:09:33;14.40;53.60
728;DHT22;347;48.780;9.158;2023-05-10T03:17:59;14.20;54.50
728;DHT22;347;48.780;9.158;2023-05-10T03:20:35;14.30;55.20
728;DHT22;347;48.780;9.158;2023-05-10T03:23:11;14.40;54.90
728;DHT22;347;48.780;9.158;2023-05-10T03:25:37;14.50;53.80
728;DHT22;347;48.780;9.158;2023-05-10T03:28:04;14.40;53.40
728;DHT22;347;48.780;9.158;2023-05-10T03:30:30;14.50;54.00
728;DHT22;347;48.780;9.158;2023-05-10T03:32:57;14.60;52.70
728;DHT22;347;48.780;9.158;2023-05-10T03:35:23;14.60;51.50
728;DHT22;347;48.780;9.158;2023-05-10T03:37:49;14.60;51.70
728;DHT22;347;48.780;9.158;2023-05-10T03:40:14;14.70;52.30
728;DHT22;347;48.780;9.158;2023-05-10T03:42:40;14.60;52.40
728;DHT22;347;48.780;9.158;2023-05-10T03:45:06;14.70;53.30
728;DHT22;347;48.780;9.158;2023-05-10T03:47:32;14.70;52.50
728;DHT22;347;48.780;9.158;2023-05-10T03:49:58;14.70;51.30
728;DHT22;347;48.780;9.158;2023-05-10T03:52:23;14.60;52.30
728;DHT22;347;48.780;9.158;2023-05-10T03:54:49;14.60;52.10
728;DHT22;347;48.780;9.158;2023-05-10T03:57:14;14.50;52.30
728;DHT22;347;48.780;9.158;2023-05-10T03:59:40;14.40;52.30
728;DHT22;347;48.780;9.158;2023-05-10T04:02:05;14.30;52.80
728;DHT22;347;48.780;9.158;2023-05-10T04:04:31;14.40;53.50
728;DHT22;347;48.780;9.158;2023-05-10T04:06:56;14.50;54.10
728;DHT22;347;48.780;9.158;2023-05-10T04:09:22;14.60;53.10
728;DHT22;347;48.780;9.158;2023-05-10T04:11:47;14.70;53.50
728;DHT22;347;48.780;9.158;2023-05-10T04:14:13;14.80;52.40
728;DHT22;347;48.780;9.158;2023-05-10T04:16:38;14.90;51.30
728;DHT22;347;48.780;9.158;2023-05-10T04:19:04;14.80;50.50
728;DHT22;347;48.780;9.158;2023-05-10T04:21:29;14.80;51.50
728;DHT22;347;48.780;9.158;2023-05-10T04:23:55;14.90;51.30
728;DHT22;347;48.780;9.158;2023-05-10T04:26:21;14.80;50.70
728;DHT22;347;48.780;9.158;2023-05-10T04:28:47;14.90;51.50
728;DHT22;347;48.780;9.158;2023-05-10T04:31:12;14.80;51.10
728;DHT22;347;48.780;9.158;2023-05-10T04:33:38;14.80;51.70
728;DHT22;347;48.780;9.158;2023-05-10T04:36:04;14.70;51.30
728;DHT22;347;48.780;9.158;2023-05-10T04:38:30;14.80;52.30
728;DHT22;347;48.780;9.158;2023-05-10T04:41:07;15.00;52.20
728;DHT22;347;48.780;9.158;2023-05-10T04:43:33;15.10;51.30
728;DHT22;347;48.780;9.158;2023-05-10T04:45:58;15.30;50.40
728;DHT22;347;48.780;9.158;2023-05-10T04:48:24;15.40;49.60
728;DHT22;347;48.780;9.158;2023-05-10T04:50:49;15.50;48.70
728;DHT22;347;48.780;9.158;2023-05-10T04:53:15;15.30;48.50
728;DHT22;347;48.780;9.158;2023-05-10T04:55:40;15.40;48.50
728;DHT22;347;48.780;9.158;2023-05-10T04:58:06;15.50;47.90
728;DHT22;347;48.780;9.158;2023-05-10T05:00:33;15.40;47.70
728;DHT22;347;48.780;9.158;2023-05-10T05:02:58;15.30;48.80
728;DHT22;347;48.780;9.158;2023-05-10T05:05:24;15.40;48.70
728;DHT22;347;48.780;9.158;2023-05-10T05:07:50;15.50;47.90
728;DHT22;347;48.780;9.158;2023-05-10T05:10:15;15.40;48.10
728;DHT22;347;48.780;9.158;2023-05-10T05:12:41;15.40;48.90
728;DHT22;347;48.780;9.158;2023-05-10T05:15:07;15.50;48.70
728;DHT22;347;48.780;9.158;2023-05-10T05:17:34;15.50;47.20
728;DHT22;347;48.780;9.158;2023-05-10T05:20:00;15.60;47.60
728;DHT22;347;48.780;9.158;2023-05-10T05:22:25;15.50;47.20
728;DHT22;347;48.780;9.158;2023-05-10T05:24:55;15.40;48.00
728;DHT22;347;48.780;9.158;2023-05-10T05:27:21;15.30;47.90
728;DHT22;347;48.780;9.158;2023-05-10T05:29:53;15.20;47.70
728;DHT22;347;48.780;9.158;2023-05-10T05:32:18;15.10;48.20
728;DHT22;347;48.780;9.158;2023-05-10T05:34:45;15.20;48.50
728;DHT22;347;48.780;9.158;2023-05-10T05:37:14;15.10;49.00
728;DHT22;347;48.780;9.158;2023-05-10T05:39:40;15.00;48.80
728;DHT22;347;48.780;9.158;2023-05-10T05:42:06;15.00;49.40
728;DHT22;347;48.780;9.158;2023-05-10T05:44:31;14.90;50.00
728;DHT22;347;48.780;9.158;2023-05-10T05:46:57;14.80;50.20
728;DHT22;347;48.780;9.158;2023-05-10T05:49:22;14.80;51.60
728;DHT22;347;48.780;9.158;2023-05-10T05:51:48;14.80;51.20
728;DHT22;347;48.780;9.158;2023-05-10T05:54:15;14.90;51.10
728;DHT22;347;48.780;9.158;2023-05-10T05:56:41;14.80;50.40
728;DHT22;347;48.780;9.158;2023-05-10T05:59:06;14.90;50.70
728;DHT22;347;48.780;9.158;2023-05-10T06:01:32;14.80;50.50
728;DHT22;347;48.780;9.158;2023-05-10T06:03:57;14.70;50.70
728;DHT22;347;48.780;9.158;2023-05-10T06:06:23;14.60;51.00
728;DHT22;347;48.780;9.158;2023-05-10T06:08:48;14.60;52.20
728;DHT22;347;48.780;9.158;2023-05-10T06:11:14;14.60;51.60
728;DHT22;347;48.780;9.158;2023-05-10T06:13:39;14.60;53.10
728;DHT22;347;48.780;9.158;2023-05-10T06:16:05;14.70;52.00
728;DHT22;347;48.780;9.158;2023-05-10T06:18:31;14.80;52.10
728;DHT22;347;48.780;9.158;2023-05-10T06:20:56;14.90;51.10
728;DHT22;347;48.780;9.158;2023-05-10T06:23:22;15.00;50.40
728;DHT22;347;48.780;9.158;2023-05-10T06:25:48;15.00;50.00
728;DHT22;347;48.780;9.158;2023-05-10T06:28:13;15.00;50.40
728;DHT22;347;48.780;9.158;2023-05-10T06:30:39;15.10;50.50
728;DHT22;347;48.780;9.158;2023-05-10T06:33:05;15.20;48.90
728;DHT22;347;48.780;9.158;2023-05-10T06:35:30;15.20;49.20
728;DHT22;347;48.780;9.158;2023-05-10T06:37:57;15.10;50.50
728;DHT22;347;48.780;9.158;2023-05-10T06:40:23;15.00;51.60
728;DHT22;347;48.780;9.158;2023-05-10T06:42:48;15.00;53.40
728;DHT22;347;48.780;9.158;2023-05-10T06:45:15;15.00;53.30
728;DHT22;347;48.780;9.158;2023-05-10T06:47:41;15.10;53.50
728;DHT22;347;48.780;9.158;2023-05-10T06:50:07;15.10;53.30
728;DHT22;347;48.780;9.158;2023-05-10T06:52:33;15.10;52.40
728;DHT22;347;48.780;9.158;2023-05-10T06:54:59;15.00;51.70
728;DHT22;347;48.780;9.158;2023-05-10T06:57:25;15.00;51.90
728;DHT22;347;48.780;9.158;2023-05-10T06:59:51;14.90;51.90
728;DHT22;347;48.780;9.158;2023-05-10T07:02:17;14.90;52.30
728;DHT22;347;48.780;9.158;2023-05-10T07:04:43;15.00;52.80
728;DHT22;347;48.780;9.158;2023-05-10T07:07:08;15.00;50.80
728;DHT22;347;48.780;9.158;2023-05-10T07:09:34;15.00;51.70
728;DHT22;347;48.780;9.158;2023-05-10T07:11:59;15.10;51.70
728;DHT22;347;48.780;9.158;2023-05-10T07:14:27;15.20;50.80
728;DHT22;347;48.780;9.158;2023-05-10T07:16:52;15.10;50.90
728;DHT22;347;48.780;9.158;2023-05-10T07:19:18;15.10;52.30
728;DHT22;347;48.780;9.158;2023-05-10T07:21:44;15.00;50.50
728;DHT22;347;48.780;9.158;2023-05-10T07:24:10;15.00;51.10
728;DHT22;347;48.780;9.158;2023-05-10T07:26:35;15.00;51.10
728;DHT22;347;48.780;9.158;2023-05-10T07:29:01;15.00;51.30
728;DHT22;347;48.780;9.158;2023-05-10T07:31:27;15.00;51.60
728;DHT22;347;48.780;9.158;2023-05-10T07:33:53;15.10;51.70
728;DHT22;347;48.780;9.158;2023-05-10T07:36:18;15.20;51.10
728;DHT22;347;48.780;9.158;2023-05-10T07:38:44;15.20;51.00
728;DHT22;347;48.780;9.158;2023-05-10T07:41:11;15.40;50.00
728;DHT22;347;48.780;9.158;2023-05-10T07:43:36;15.40;49.10
728;DHT22;347;48.780;9.158;2023-05-10T07:46:02;15.40;47.80
728;DHT22;347;48.780;9.158;2023-05-10T07:48:28;15.40;47.70
728;DHT22;347;48.780;9.158;2023-05-10T07:50:53;15.50;47.60
728;DHT22;347;48.780;9.158;2023-05-10T07:53:19;15.60;46.60
728;DHT22;347;48.780;9.158;2023-05-10T07:55:45;15.70;46.70
728;DHT22;347;48.780;9.158;2023-05-10T07:58:14;15.60;44.00
728;DHT22;347;48.780;9.158;2023-05-10T08:00:40;15.50;44.40
728;DHT22;347;48.780;9.158;2023-05-10T08:03:06;15.60;46.50
728;DHT22;347;48.780;9.158;2023-05-10T08:05:31;15.50;44.30
728;DHT22;347;48.780;9.158;2023-05-10T08:07:57;15.50;43.60
728;DHT22;347;48.780;9.158;2023-05-10T08:10:24;15.60;43.60
728;DHT22;347;48.780;9.158;2023-05-10T08:12:49;15.70;44.10
728;DHT22;347;48.780;9.158;2023-05-10T08:15:15;15.70;43.40
728;DHT22;347;48.780;9.158;2023-05-10T08:17:40;15.80;42.70
728;DHT22;347;48.780;9.158;2023-05-10T08:20:08;15.90;41.80
728;DHT22;347;48.780;9.158;2023-05-10T08:22:34;16.00;41.70
728;DHT22;347;48.780;9.158;2023-05-10T08:24:59;16.10;41.10
728;DHT22;347;48.780;9.158;2023-05-10T08:27:25;16.10;41.30
728;DHT22;347;48.780;9.158;2023-05-10T08:29:50;16.10;41.00
728;DHT22;347;48.780;9.158;2023-05-10T08:32:16;16.20;40.40
728;DHT22;347;48.780;9.158;2023-05-10T08:34:42;16.30;40.30
728;DHT22;347;48.780;9.158;2023-05-10T08:37:07;16.20;41.10
728;DHT22;347;48.780;9.158;2023-05-10T08:39:36;16.10;40.60
728;DHT22;347;48.780;9.158;2023-05-10T08:42:04;16.00;41.10
728;DHT22;347;48.780;9.158;2023-05-10T08:44:34;16.00;41.40
728;DHT22;347;48.780;9.158;2023-05-10T08:47:04;16.10;41.50
728;DHT22;347;48.780;9.158;2023-05-10T08:49:31;16.20;39.70
728;DHT22;347;48.780;9.158;2023-05-10T08:51:59;16.30;39.10
728;DHT22;347;48.780;9.158;2023-05-10T08:54:27;16.40;38.80
728;DHT22;347;48.780;9.158;2023-05-10T08:56:53;16.30;39.00
728;DHT22;347;48.780;9.158;2023-05-10T08:59:18;16.20;39.20
728;DHT22;347;48.780;9.158;2023-05-10T09:01:44;16.10;38.80
728;DHT22;347;48.780;9.158;2023-05-10T09:04:12;16.10;38.40
728;DHT22;347;48.780;9.158;2023-05-10T09:06:37;16.20;38.90
728;DHT22;347;48.780;9.158;2023-05-10T09:09:03;16.30;38.70
728;DHT22;347;48.780;9.158;2023-05-10T09:11:29;16.40;38.00
728;DHT22;347;48.780;9.158;2023-05-10T09:13:55;16.40;37.50
728;DHT22;347;48.780;9.158;2023-05-10T09:16:22;16.30;38.00
728;DHT22;347;48.780;9.158;2023-05-10T09:18:47;16.30;37.80
728;DHT22;347;48.780;9.158;2023-05-10T09:21:14;16.10;36.30
728;DHT22;347;48.780;9.158;2023-05-10T09:23:43;16.20;36.90
728;DHT22;347;48.780;9.158;2023-05-10T09:26:09;16.30;37.00
728;DHT22;347;48.780;9.158;2023-05-10T09:28:50;16.40;34.30
728;DHT22;347;48.780;9.158;2023-05-10T09:31:16;16.40;34.00
728;DHT22;347;48.780;9.158;2023-05-10T09:33:46;16.40;34.10
728;DHT22;347;48.780;9.158;2023-05-10T09:36:12;16.50;33.10
728;DHT22;347;48.780;9.158;2023-05-10T09:38:48;16.50;33.20
728;DHT22;347;48.780;9.158;2023-05-10T09:41:22;16.40;33.10
728;DHT22;347;48.780;9.158;2023-05-10T09:43:48;16.30;33.20
728;DHT22;347;48.780;9.158;2023-05-10T09:46:15;16.30;33.80
728;DHT22;347;48.780;9.158;2023-05-10T09:48:42;16.30;34.50
728;DHT22;347;48.780;9.158;2023-05-10T09:51:08;16.30;34.10
728;DHT22;347;48.780;9.158;2023-05-10T09:53:34;16.40;33.80
728;DHT22;347;48.780;9.158;2023-05-10T09:56:00;16.40;33.50
728;DHT22;347;48.780;9.158;2023-05-10T09:58:25;16.60;33.70
728;DHT22;347;48.780;9.158;2023-05-10T10:00:51;16.70;32.80
728;DHT22;347;48.780;9.158;2023-05-10T10:03:19;16.70;32.90
728;DHT22;347;48.780;9.158;2023-05-10T10:05:46;16.80;33.10
728;DHT22;347;48.780;9.158;2023-05-10T10:08:13;16.90;32.40
728;DHT22;347;48.780;9.158;2023-05-10T10:10:39;16.90;31.60
728;DHT22;347;48.780;9.158;2023-05-10T10:13:06;16.80;34.30
728;DHT22;347;48.780;9.158;2023-05-10T10:15:33;16.80;32.50
728;DHT22;347;48.780;9.158;2023-05-10T10:17:59;16.80;32.90
728;DHT22;347;48.780;9.158;2023-05-10T10:20:26;16.80;32.50
728;DHT22;347;48.780;9.158;2023-05-10T10:22:52;16.90;32.30
728;DHT22;347;48.780;9.158;2023-05-10T10:25:19;16.90;31.50
728;DHT22;347;48.780;9.158;2023-05-10T10:30:35;16.90;30.70
728;DHT22;347;48.780;9.158;2023-05-10T10:33:36;17.00;29.60
728;DHT22;347;48.780;9.158;2023-05-10T10:36:04;17.00;29.80
728;DHT22;347;48.780;9.158;2023-05-10T10:38:55;17.00;32.10
728;DHT22;347;48.780;9.158;2023-05-10T10:41:35;16.90;30.50
728;DHT22;347;48.780;9.158;2023-05-10T10:47:20;16.90;29.70
728;DHT22;347;48.780;9.158;2023-05-10T10:52:43;17.00;29.50
728;DHT22;347;48.780;9.158;2023-05-10T10:55:20;17.00;29.60
728;DHT22;347;48.780;9.158;2023-05-10T10:57:55;16.90;29.50
728;DHT22;347;48.780;9.158;2023-05-10T11:00:29;16.60;29.10
728;DHT22;347;48.780;9.158;2023-05-10T11:03:04;16.40;29.60
728;DHT22;347;48.780;9.158;2023-05-10T11:05:41;16.40;29.20
728;DHT22;347;48.780;9.158;2023-05-10T11:08:30;16.40;29.30
728;DHT22;347;48.780;9.158;2023-05-10T11:13:44;16.20;28.10
728;DHT22;347;48.780;9.158;2023-05-10T11:18:40;15.90;28.40
728;DHT22;347;48.780;9.158;2023-05-10T11:21:09;15.90;28.70
728;DHT22;347;48.780;9.158;2023-05-10T11:23:48;16.10;29.00
728;DHT22;347;48.780;9.158;2023-05-10T11:26:14;16.10;28.80
728;DHT22;347;48.780;9.158;2023-05-10T11:28:47;16.20;29.10
728;DHT22;347;48.780;9.158;2023-05-10T11:31:14;16.30;29.50
728;DHT22;347;48.780;9.158;2023-05-10T11:33:44;16.30;28.70
728;DHT22;347;48.780;9.158;2023-05-10T11:36:36;16.40;28.10
728;DHT22;347;48.780;9.158;2023-05-10T11:39:03;16.20;27.60
728;DHT22;347;48.780;9.158;2023-05-10T11:41:30;16.20;27.80
728;DHT22;347;48.780;9.158;2023-05-10T11:43:57;16.30;27.90
728;DHT22;347;48.780;9.158;2023-05-10T11:46:26;16.30;28.20
728;DHT22;347;48.780;9.158;2023-05-10T11:48:55;16.40;28.40
728;DHT22;347;48.780;9.158;2023-05-10T11:51:21;16.60;27.90
728;DHT22;347;48.780;9.158;2023-05-10T11:53:55;16.70;26.80
728;DHT22;347;48.780;9.158;2023-05-10T11:56:21;16.60;27.70
728;DHT22;347;48.780;9.158;2023-05-10T11:58:57;16.50;28.20
728;DHT22;347;48.780;9.158;2023-05-10T12:01:24;16.50;27.80
728;DHT22;347;48.780;9.158;2023-05-10T12:03:51;16.40;27.50
728;DHT22;347;48.780;9.158;2023-05-10T12:06:18;16.40;28.40
728;DHT22;347;48.780;9.158;2023-05-10T12:08:46;16.50;28.50
728;DHT22;347;48.780;9.158;2023-05-10T12:11:13;16.40;27.50
728;DHT22;347;48.780;9.158;2023-05-10T12:13:44;16.20;27.70
728;DHT22;347;48.780;9.158;2023-05-10T12:16:16;16.30;28.00
728;DHT22;347;48.780;9.158;2023-05-10T12:18:42;16.20;27.40
728;DHT22;347;48.780;9.158;2023-05-10T12:21:10;16.20;28.30
728;DHT22;347;48.780;9.158;2023-05-10T12:23:35;16.30;29.00
728;DHT22;347;48.780;9.158;2023-05-10T12:26:02;16.40;28.00
728;DHT22;347;48.780;9.158;2023-05-10T12:28:30;16.40;27.80
728;DHT22;347;48.780;9.158;2023-05-10T12:30:57;16.40;27.50
728;DHT22;347;48.780;9.158;2023-05-10T12:33:23;16.40;27.50
728;DHT22;347;48.780;9.158;2023-05-10T12:35:51;16.50;27.00
728;DHT22;347;48.780;9.158;2023-05-10T12:38:33;16.40;25.50
728;DHT22;347;48.780;9.158;2023-05-10T12:41:00;16.50;25.00
728;DHT22;347;48.780;9.158;2023-05-10T12:43:26;16.50;24.50
728;DHT22;347;48.780;9.158;2023-05-10T12:45:52;16.60;24.30
728;DHT22;347;48.780;9.158;2023-05-10T12:48:18;16.70;23.60
728;DHT22;347;48.780;9.158;2023-05-10T12:50:44;16.70;23.90
728;DHT22;347;48.780;9.158;2023-05-10T12:53:09;16.70;24.60
728;DHT22;347;48.780;9.158;2023-05-10T12:55:35;16.80;24.70
728;DHT22;347;48.780;9.158;2023-05-10T12:58:00;16.90;24.70
728;DHT22;347;48.780;9.158;2023-05-10T13:00:26;16.80;24.90
728;DHT22;347;48.780;9.158;2023-05-10T13:02:52;16.80;25.30
728;DHT22;347;48.780;9.158;2023-05-10T13:05:18;16.80;25.80
728;DHT22;347;48.780;9.158;2023-05-10T13:07:43;16.80;25.30
728;DHT22;347;48.780;9.158;2023-05-10T13:10:09;16.70;26.00
728;DHT22;347;48.780;9.158;2023-05-10T13:12:35;16.60;26.00
728;DHT22;347;48.780;9.158;2023-05-10T13:15:01;16.70;25.90
728;DHT22;347;48.780;9.158;2023-05-10T13:17:28;16.50;25.40
728;DHT22;347;48.780;9.158;2023-05-10T13:19:54;16.50;26.30
728;DHT22;347;48.780;9.158;2023-05-10T13:22:19;16.60;25.90
728;DHT22;347;48.780;9.158;2023-05-10T13:24:45;16.80;24.60
728;DHT22;347;48.780;9.158;2023-05-10T13:27:10;16.80;24.50
728;DHT22;347;48.780;9.158;2023-05-10T13:29:36;16.80;24.50
728;DHT22;347;48.780;9.158;2023-05-10T13:32:01;16.60;24.40
728;DHT22;347;48.780;9.158;2023-05-10T13:34:27;16.60;25.00
728;DHT22;347;48.780;9.158;2023-05-10T13:36:53;16.70;24.40
728;DHT22;347;48.780;9.158;2023-05-10T13:39:20;16.70;24.30
728;DHT22;347;48.780;9.158;2023-05-10T13:41:45;16.70;24.40
728;DHT22;347;48.780;9.158;2023-05-10T13:44:13;16.70;24.60
728;DHT22;347;48.780;9.158;2023-05-10T13:46:39;16.70;23.80
728;DHT22;347;48.780;9.158;2023-05-10T13:49:05;16.80;24.20
728;DHT22;347;48.780;9.158;2023-05-10T13:51:30;16.70;24.20
728;DHT22;347;48.780;9.158;2023-05-10T13:53:57;16.70;23.70
728;DHT22;347;48.780;9.158;2023-05-10T13:56:23;16.80;23.70
728;DHT22;347;48.780;9.158;2023-05-10T13:58:48;16.90;24.10
728;DHT22;347;48.780;9.158;2023-05-10T14:01:14;16.90;23.20
728;DHT22;347;48.780;9.158;2023-05-10T14:03:39;17.00;22.60
728;DHT22;347;48.780;9.158;2023-05-10T14:06:05;17.10;22.10
728;DHT22;347;48.780;9.158;2023-05-10T14:08:32;17.20;22.10
728;DHT22;347;48.780;9.158;2023-05-10T14:10:58;17.20;21.30
728;DHT22;347;48.780;9.158;2023-05-10T14:13:24;17.20;20.70
728;DHT22;347;48.780;9.158;2023-05-10T14:15:50;17.20;20.60
728;DHT22;347;48.780;9.158;2023-05-10T14:18:15;17.00;20.70
728;DHT22;347;48.780;9.158;2023-05-10T14:20:41;16.90;20.60
728;DHT22;347;48.780;9.158;2023-05-10T14:23:06;16.90;21.20
728;DHT22;347;48.780;9.158;2023-05-10T14:25:32;16.90;21.20
728;DHT22;347;48.780;9.158;2023-05-10T14:27:58;16.90;21.60
728;DHT22;347;48.780;9.158;2023-05-10T14:30:24;17.10;21.10
728;DHT22;347;48.780;9.158;2023-05-10T14:32:49;17.20;20.70
728;DHT22;347;48.780;9.158;2023-05-10T14:35:15;17.30;20.10
728;DHT22;347;48.780;9.158;2023-05-10T14:37:41;17.30;20.60
728;DHT22;347;48.780;9.158;2023-05-10T14:40:06;17.30;20.70
728;DHT22;347;48.780;9.158;2023-05-10T14:42:32;17.30;20.60
728;DHT22;347;48.780;9.158;2023-05-10T14:44:58;17.30;21.10
728;DHT22;347;48.780;9.158;2023-05-10T14:47:23;17.30;21.20
728;DHT22;347;48.780;9.158;2023-05-10T14:49:49;17.30;21.60
728;DHT22;347;48.780;9.158;2023-05-10T14:52:14;17.30;21.20
728;DHT22;347;48.780;9.158;2023-05-10T14:54:40;17.30;20.50
728;DHT22;347;48.780;9.158;2023-05-10T14:57:06;17.30;20.30
728;DHT22;347;48.780;9.158;2023-05-10T14:59:32;17.40;20.80
728;DHT22;347;48.780;9.158;2023-05-10T15:01:58;17.30;20.80
728;DHT22;347;48.780;9.158;2023-05-10T15:04:23;17.30;21.00
728;DHT22;347;48.780;9.158;2023-05-10T15:06:49;17.30;21.30
728;DHT22;347;48.780;9.158;2023-05-10T15:09:14;17.30;21.40
728;DHT22;347;48.780;9.158;2023-05-10T15:11:41;17.30;21.60
728;DHT22;347;48.780;9.158;2023-05-10T15:14:07;17.30;21.60
728;DHT22;347;48.780;9.158;2023-05-10T15:16:32;17.20;22.10
728;DHT22;347;48.780;9.158;2023-05-10T15:18:58;17.30;22.00
728;DHT22;347;48.780;9.158;2023-05-10T15:21:23;17.30;21.70
728;DHT22;347;48.780;9.158;2023-05-10T15:23:49;17.30;21.60
728;DHT22;347;48.780;9.158;2023-05-10T15:26:14;17.40;21.50
728;DHT22;347;48.780;9.158;2023-05-10T15:28:40;17.30;21.70
728;DHT22;347;48.780;9.158;2023-05-10T15:31:05;17.10;22.10
728;DHT22;347;48.780;9.158;2023-05-10T15:33:31;17.00;22.50
728;DHT22;347;48.780;9.158;2023-05-10T15:35:57;17.10;22.50
728;DHT22;347;48.780;9.158;2023-05-10T15:38:22;17.10;22.40
728;DHT22;347;48.780;9.158;2023-05-10T15:40:48;17.00;22.20
728;DHT22;347;48.780;9.158;2023-05-10T15:43:14;17.00;22.00
728;DHT22;347;48.780;9.158;2023-05-10T15:45:39;17.00;22.20
728;DHT22;347;48.780;9.158;2023-05-10T15:48:05;17.00;22.30
728;DHT22;347;48.780;9.158;2023-05-10T15:50:30;17.10;22.30
728;DHT22;347;48.780;9.158;2023-05-10T15:52:56;17.10;21.30
728;DHT22;347;48.780;9.158;2023-05-10T15:55:21;17.10;20.60
728;DHT22;347;48.780;9.158;2023-05-10T15:57:47;17.10;20.50
728;DHT22;347;48.780;9.158;2023-05-10T16:00:13;17.10;20.80
728;DHT22;347;48.780;9.158;2023-05-10T16:02:39;17.10;19.70
728;DHT22;347;48.780;9.158;2023-05-10T16:05:05;17.00;19.80
728;DHT22;347;48.780;9.158;2023-05-10T16:07:31;16.90;19.80
728;DHT22;347;48.780;9.158;2023-05-10T16:09:56;17.00;20.40
728;DHT22;347;48.780;9.158;2023-05-10T16:12:22;17.10;20.40
728;DHT22;347;48.780;9.158;2023-05-10T16:14:47;17.00;19.80
728;DHT22;347;48.780;9.158;2023-05-10T16:17:13;17.00;19.70
728;DHT22;347;48.780;9.158;2023-05-10T16:19:41;17.00;20.20
728;DHT22;347;48.780;9.158;2023-05-10T16:22:07;17.00;20.40
728;DHT22;347;48.780;9.158;2023-05-10T16:24:32;17.00;19.70
728;DHT22;347;48.780;9.158;2023-05-10T16:26:58;16.90;19.60
728;DHT22;347;48.780;9.158;2023-05-10T16:29:23;16.90;20.00
728;DHT22;347;48.780;9.158;2023-05-10T16:31:49;17.00;20.00
728;DHT22;347;48.780;9.158;2023-05-10T16:34:15;16.90;19.80
728;DHT22;347;48.780;9.158;2023-05-10T16:36:40;16.90;20.00
728;DHT22;347;48.780;9.158;2023-05-10T16:39:06;17.00;19.70
728;DHT22;347;48.780;9.158;2023-05-10T16:41:33;16.90;19.60
728;DHT22;347;48.780;9.158;2023-05-10T16:43:59;16.90;20.70
728;DHT22;347;48.780;9.158;2023-05-10T16:46:25;17.00;20.10
728;DHT22;347;48.780;9.158;2023-05-10T16:48:51;17.00;20.30
728;DHT22;347;48.780;9.158;2023-05-10T16:51:16;17.10;20.40
728;DHT22;347;48.780;9.158;2023-05-10T16:53:42;17.10;20.50
728;DHT22;347;48.780;9.158;2023-05-10T16:56:08;17.20;20.50